sensor_id;sensor_type;location;lat;lon;timestamp;temperature;humidity
8340;DHT22;4207;49.314;7.162;2023-05-07T00:01:05;14.60;99.90
8340;DHT22;4207;49.314;7.162;2023-05-07T00:03:33;14.60;99.90
8340;DHT22;4207;49.314;7.162;2023-05-07T00:06:02;14.60;99.90
8340;DHT22;4207;49.314;7.162;2023-05-07T00:08:31;14.50;99.90
8340;DHT22;4207;49.314;7.162;2023-05-07T00:11:00;14.40;99.90
8340;DHT22;4207;49.314;7.162;2023-05-07T00:13:28;14.20;99.90
8340;DHT22;4207;49.314;7.162;2023-05-07T00:16:02;14.30;99.90
8340;DHT22;4207;49.314;7.162;2023-05-07T00:18:32;14.20;99.90
8340;DHT22;4207;49.314;7.162;2023-05-07T00:21:01;14.10;99.90
8340;DHT22;4207;49.314;7.162;2023-05-07T00:23:29;14.10;99.90
8340;DHT22;4207;49.314;7.162;2023-05-07T00:25:59;14.00;99.90
8340;DHT22;4207;49.314;7.162;2023-05-07T00:28:28;14.00;99.90
8340;DHT22;4207;49.314;7.162;2023-05-07T00:30:56;13.90;99.90
8340;DHT22;4207;49.314;7.162;2023-05-07T00:33:25;13.90;99.90
8340;DHT22;4207;49.314;7.162;2023-05-07T00:35:55;13.80;99.90
8340;DHT22;4207;49.314;7.162;2023-05-07T00:38:24;13.80;99.90
8340;DHT22;4207;49.314;7.162;2023-05-07T00:40:56;13.70;99.90
8340;DHT22;4207;49.314;7.162;2023-05-07T00:43:26;13.70;99.90
8340;DHT22;4207;49.314;7.162;2023-05-07T00:45:55;13.70;99.90
8340;DHT22;4207;49.314;7.162;2023-05-07T00:48:25;13.70;99.90
8340;DHT22;4207;49.314;7.162;2023-05-07T00:50:56;13.70;99.90
8340;DHT22;4207;49.314;7.162;2023-05-07T00:53:25;13.60;99.90
8340;DHT22;4207;49.314;7.162;2023-05-07T00:55:54;13.60;99.90
8340;DHT22;4207;49.314;7.162;2023-05-07T00:58:28;13.50;99.90
8340;DHT22;4207;49.314;7.162;2023-05-07T01:01:00;13.50;99.90
8340;DHT22;4207;49.314;7.162;2023-05-07T01:03:32;13.40;99.90
8340;DHT22;4207;49.314;7.162;2023-05-07T01:06:03;13.40;99.90
8340;DHT22;4207;49.314;7.162;2023-05-07T01:08:34;13.20;99.90
8340;DHT22;4207;49.314;7.162;2023-05-07T01:11:06;13.40;99.90
8340;DHT22;4207;49.314;7.162;2023-05-07T01:13:38;13.40;99.90
8340;DHT22;4207;49.314;7.162;2023-05-07T01:16:08;13.40;99.90
8340;DHT22;4207;49.314;7.162;2023-05-07T01:18:39;13.30;99.90
8340;DHT22;4207;49.314;7.162;2023-05-07T01:21:11;13.30;99.90
8340;DHT22;4207;49.314;7.162;2023-05-07T01:23:41;13.40;99.90
8340;DHT22;4207;49.314;7.162;2023-05-07T01:26:09;13.30;99.90
8340;DHT22;4207;49.314;7.162;2023-05-07T01:28:37;13.30;99.90
8340;DHT22;4207;49.314;7.162;2023-05-07T01:31:06;13.40;99.90
8340;DHT22;4207;49.314;7.162;2023-05-07T01:33:36;13.30;99.90
8340;DHT22;4207;49.314;7.162;2023-05-07T01:36:06;13.40;99.90
8340;DHT22;4207;49.314;7.162;2023-05-07T01:38:37;13.40;99.90
8340;DHT22;4207;49.314;7.162;2023-05-07T01:41:07;13.40;99.90
8340;DHT22;4207;49.314;7.162;2023-05-07T01:43:35;13.40;99.90
8340;DHT22;4207;49.314;7.162;2023-05-07T01:46:08;13.40;99.90
8340;DHT22;4207;49.314;7.162;2023-05-07T01:48:37;13.40;99.90
8340;DHT22;4207;49.314;7.162;2023-05-07T01:51:06;13.30;99.90
8340;DHT22;4207;49.314;7.162;2023-05-07T01:53:38;13.30;99.90
8340;DHT22;4207;49.314;7.162;2023-05-07T01:56:08;13.30;99.90
8340;DHT22;4207;49.314;7.162;2023-05-07T01:58:39;13.20;99.90
8340;DHT22;4207;49.314;7.162;2023-05-07T02:01:07;13.20;99.90
8340;DHT22;4207;49.314;7.162;2023-05-07T02:03:36;13.10;99.90
8340;DHT22;4207;49.314;7.162;2023-05-07T02:06:13;13.10;99.90
8340;DHT22;4207;49.314;7.162;2023-05-07T02:08:41;13.10;99.90
8340;DHT22;4207;49.314;7.162;2023-05-07T02:11:12;13.00;99.90
8340;DHT22;4207;49.314;7.162;2023-05-07T02:13:41;13.10;99.90
8340;DHT22;4207;49.314;7.162;2023-05-07T02:16:09;13.10;99.90
8340;DHT22;4207;49.314;7.162;2023-05-07T02:18:38;13.10;99.90
8340;DHT22;4207;49.314;7.162;2023-05-07T02:21:07;13.10;99.90
8340;DHT22;4207;49.314;7.162;2023-05-07T02:23:35;13.10;99.90
8340;DHT22;4207;49.314;7.162;2023-05-07T02:26:04;13.00;99.90
8340;DHT22;4207;49.314;7.162;2023-05-07T02:28:33;13.00;99.90
8340;DHT22;4207;49.314;7.162;2023-05-07T02:31:04;13.00;99.90
8340;DHT22;4207;49.314;7.162;2023-05-07T02:33:33;13.00;99.90
8340;DHT22;4207;49.314;7.162;2023-05-07T02:36:06;13.00;99.90
8340;DHT22;4207;49.314;7.162;2023-05-07T02:38:38;13.00;99.90
8340;DHT22;4207;49.314;7.162;2023-05-07T02:41:06;13.00;99.90
8340;DHT22;4207;49.314;7.162;2023-05-07T02:43:36;13.00;99.90
8340;DHT22;4207;49.314;7.162;2023-05-07T02:46:05;12.90;99.90
8340;DHT22;4207;49.314;7.162;2023-05-07T02:48:37;12.90;99.90
8340;DHT22;4207;49.314;7.162;2023-05-07T02:51:05;12.80;99.90
8340;DHT22;4207;49.314;7.162;2023-05-07T02:53:35;13.00;99.90
8340;DHT22;4207;49.314;7.162;2023-05-07T02:56:04;12.80;99.90
8340;DHT22;4207;49.314;7.162;2023-05-07T02:58:33;12.70;99.90
8340;DHT22;4207;49.314;7.162;2023-05-07T03:01:04;12.70;99.90
8340;DHT22;4207;49.314;7.162;2023-05-07T03:03:45;12.70;99.90
8340;DHT22;4207;49.314;7.162;2023-05-07T03:06:14;12.70;99.90
8340;DHT22;4207;49.314;7.162;2023-05-07T03:08:42;12.60;99.90
8340;DHT22;4207;49.314;7.162;2023-05-07T03:11:10;12.70;99.90
8340;DHT22;4207;49.314;7.162;2023-05-07T03:13:38;12.60;99.90
8340;DHT22;4207;49.314;7.162;2023-05-07T03:16:08;12.70;99.90
8340;DHT22;4207;49.314;7.162;2023-05-07T03:18:36;12.60;99.90
8340;DHT22;4207;49.314;7.162;2023-05-07T03:21:04;12.60;99.90
8340;DHT22;4207;49.314;7.162;2023-05-07T03:23:33;12.60;99.90
8340;DHT22;4207;49.314;7.162;2023-05-07T03:26:01;12.60;99.90
8340;DHT22;4207;49.314;7.162;2023-05-07T03:28:29;12.50;99.90
8340;DHT22;4207;49.314;7.162;2023-05-07T03:31:01;12.50;99.90
8340;DHT22;4207;49.314;7.162;2023-05-07T03:33:33;12.50;99.90
8340;DHT22;4207;49.314;7.162;2023-05-07T03:36:01;12.40;99.90
8340;DHT22;4207;49.314;7.162;2023-05-07T03:38:31;12.40;99.90
8340;DHT22;4207;49.314;7.162;2023-05-07T03:40:59;12.40;99.90
8340;DHT22;4207;49.314;7.162;2023-05-07T03:43:27;12.30;99.90
8340;DHT22;4207;49.314;7.162;2023-05-07T03:46:02;12.30;99.90
8340;DHT22;4207;49.314;7.162;2023-05-07T03:48:32;12.30;99.90
8340;DHT22;4207;49.314;7.162;2023-05-07T03:51:00;12.30;99.90
8340;DHT22;4207;49.314;7.162;2023-05-07T03:53:32;12.30;99.90
8340;DHT22;4207;49.314;7.162;2023-05-07T03:56:00;12.40;99.90
8340;DHT22;4207;49.314;7.162;2023-05-07T03:58:33;12.50;99.90
8340;DHT22;4207;49.314;7.162;2023-05-07T04:01:06;12.40;99.90
8340;DHT22;4207;49.314;7.162;2023-05-07T04:03:36;12.40;99.90
8340;DHT22;4207;49.314;7.162;2023-05-07T04:06:04;12.50;99.90
8340;DHT22;4207;49.314;7.162;2023-05-07T04:08:34;12.50;99.90
8340;DHT22;4207;49.314;7.162;2023-05-07T04:11:04;12.60;99.90
8340;DHT22;4207;49.314;7.162;2023-05-07T04:13:35;12.40;99.90
8340;DHT22;4207;49.314;7.162;2023-05-07T04:16:05;12.50;99.90
8340;DHT22;4207;49.314;7.162;2023-05-07T04:18:37;12.40;99.90
8340;DHT22;4207;49.314;7.162;2023-05-07T04:21:05;12.50;99.90
8340;DHT22;4207;49.314;7.162;2023-05-07T04:23:37;12.40;99.90
8340;DHT22;4207;49.314;7.162;2023-05-07T04:26:09;12.40;99.90
8340;DHT22;4207;49.314;7.162;2023-05-07T04:28:41;12.40;99.90
8340;DHT22;4207;49.314;7.162;2023-05-07T04:31:10;12.50;99.90
8340;DHT22;4207;49.314;7.162;2023-05-07T04:33:40;12.50;99.90
8340;DHT22;4207;49.314;7.162;2023-05-07T04:36:13;12.50;99.90
8340;DHT22;4207;49.314;7.162;2023-05-07T04:38:49;12.50;99.90
8340;DHT22;4207;49.314;7.162;2023-05-07T04:41:19;12.60;99.90
8340;DHT22;4207;49.314;7.162;2023-05-07T04:43:50;12.60;99.90
8340;DHT22;4207;49.314;7.162;2023-05-07T04:46:24;12.60;99.90
8340;DHT22;4207;49.314;7.162;2023-05-07T04:48:55;12.60;99.90
8340;DHT22;4207;49.314;7.162;2023-05-07T04:51:23;12.70;99.90
8340;DHT22;4207;49.314;7.162;2023-05-07T04:53:52;12.70;99.90
8340;DHT22;4207;49.314;7.162;2023-05-07T04:56:21;12.70;99.90
8340;DHT22;4207;49.314;7.162;2023-05-07T04:58:50;12.70;99.90
8340;DHT22;4207;49.314;7.162;2023-05-07T05:01:20;12.80;99.90
8340;DHT22;4207;49.314;7.162;2023-05-07T05:03:49;12.80;99.90
8340;DHT22;4207;49.314;7.162;2023-05-07T05:06:20;12.80;99.90
8340;DHT22;4207;49.314;7.162;2023-05-07T05:08:50;12.90;99.90
8340;DHT22;4207;49.314;7.162;2023-05-07T05:11:18;13.10;99.90
8340;DHT22;4207;49.314;7.162;2023-05-07T05:13:47;13.10;99.90
8340;DHT22;4207;49.314;7.162;2023-05-07T05:16:19;13.20;99.90
8340;DHT22;4207;49.314;7.162;2023-05-07T05:18:48;13.30;99.90
8340;DHT22;4207;49.314;7.162;2023-05-07T05:21:23;13.40;99.90
8340;DHT22;4207;49.314;7.162;2023-05-07T05:23:57;13.50;99.90
8340;DHT22;4207;49.314;7.162;2023-05-07T05:26:26;13.60;99.90
8340;DHT22;4207;49.314;7.162;2023-05-07T05:28:54;13.70;99.90
8340;DHT22;4207;49.314;7.162;2023-05-07T05:31:25;13.70;99.90
8340;DHT22;4207;49.314;7.162;2023-05-07T05:33:56;13.80;99.90
8340;DHT22;4207;49.314;7.162;2023-05-07T05:36:26;13.90;99.90
8340;DHT22;4207;49.314;7.162;2023-05-07T05:38:56;14.00;99.90
8340;DHT22;4207;49.314;7.162;2023-05-07T05:41:25;14.20;99.90
8340;DHT22;4207;49.314;7.162;2023-05-07T05:43:53;14.20;99.90
8340;DHT22;4207;49.314;7.162;2023-05-07T05:46:21;14.30;99.90
8340;DHT22;4207;49.314;7.162;2023-05-07T05:48:51;14.30;99.90
8340;DHT22;4207;49.314;7.162;2023-05-07T05:51:20;14.50;99.90
8340;DHT22;4207;49.314;7.162;2023-05-07T05:53:50;14.60;99.90
8340;DHT22;4207;49.314;7.162;2023-05-07T05:56:19;14.60;99.90
8340;DHT22;4207;49.314;7.162;2023-05-07T05:58:48;14.70;99.90
8340;DHT22;4207;49.314;7.162;2023-05-07T06:01:17;14.80;99.90
8340;DHT22;4207;49.314;7.162;2023-05-07T06:03:48;14.80;99.90
8340;DHT22;4207;49.314;7.162;2023-05-07T06:06:16;14.90;99.90
8340;DHT22;4207;49.314;7.162;2023-05-07T06:08:45;14.90;99.90
8340;DHT22;4207;49.314;7.162;2023-05-07T06:11:20;15.00;99.90
8340;DHT22;4207;49.314;7.162;2023-05-07T06:13:48;15.10;99.90
8340;DHT22;4207;49.314;7.162;2023-05-07T06:16:16;15.10;99.90
8340;DHT22;4207;49.314;7.162;2023-05-07T06:18:46;15.20;99.90
8340;DHT22;4207;49.314;7.162;2023-05-07T06:21:16;15.30;99.90
8340;DHT22;4207;49.314;7.162;2023-05-07T06:23:50;15.40;99.90
8340;DHT22;4207;49.314;7.162;2023-05-07T06:26:21;15.40;99.90
8340;DHT22;4207;49.314;7.162;2023-05-07T06:28:49;15.50;99.90
8340;DHT22;4207;49.314;7.162;2023-05-07T06:31:18;15.60;99.90
8340;DHT22;4207;49.314;7.162;2023-05-07T06:34:08;15.70;99.90
8340;DHT22;4207;49.314;7.162;2023-05-07T06:36:37;15.80;99.90
8340;DHT22;4207;49.314;7.162;2023-05-07T06:39:14;15.90;99.90
8340;DHT22;4207;49.314;7.162;2023-05-07T06:41:44;16.00;99.90
8340;DHT22;4207;49.314;7.162;2023-05-07T06:44:22;16.10;99.90
8340;DHT22;4207;49.314;7.162;2023-05-07T06:47:09;16.30;99.90
8340;DHT22;4207;49.314;7.162;2023-05-07T06:49:41;16.20;99.90
8340;DHT22;4207;49.314;7.162;2023-05-07T06:52:12;16.30;99.90
8340;DHT22;4207;49.314;7.162;2023-05-07T06:54:41;16.50;99.90
8340;DHT22;4207;49.314;7.162;2023-05-07T06:57:12;16.50;99.90
8340;DHT22;4207;49.314;7.162;2023-05-07T06:59:42;16.50;99.90
8340;DHT22;4207;49.314;7.162;2023-05-07T07:02:10;16.50;99.90
8340;DHT22;4207;49.314;7.162;2023-05-07T07:04:39;16.60;99.90
8340;DHT22;4207;49.314;7.162;2023-05-07T07:07:10;16.60;99.90
8340;DHT22;4207;49.314;7.162;2023-05-07T07:09:40;16.60;99.90
8340;DHT22;4207;49.314;7.162;2023-05-07T07:12:09;16.60;99.90
8340;DHT22;4207;49.314;7.162;2023-05-07T07:14:41;16.70;99.90
8340;DHT22;4207;49.314;7.162;2023-05-07T07:17:09;16.60;99.90
8340;DHT22;4207;49.314;7.162;2023-05-07T07:19:37;16.50;99.90
8340;DHT22;4207;49.314;7.162;2023-05-07T07:22:07;16.60;99.90
8340;DHT22;4207;49.314;7.162;2023-05-07T07:24:37;16.60;99.90
8340;DHT22;4207;49.314;7.162;2023-05-07T07:27:07;16.70;99.90
8340;DHT22;4207;49.314;7.162;2023-05-07T07:29:36;16.80;99.90
8340;DHT22;4207;49.314;7.162;2023-05-07T07:32:05;16.90;99.90
8340;DHT22;4207;49.314;7.162;2023-05-07T07:34:34;17.00;99.90
8340;DHT22;4207;49.314;7.162;2023-05-07T07:37:02;17.10;99.90
8340;DHT22;4207;49.314;7.162;2023-05-07T07:39:35;17.20;99.90
8340;DHT22;4207;49.314;7.162;2023-05-07T07:42:05;17.30;99.90
8340;DHT22;4207;49.314;7.162;2023-05-07T07:44:36;17.30;99.90
8340;DHT22;4207;49.314;7.162;2023-05-07T07:47:10;17.40;99.90
8340;DHT22;4207;49.314;7.162;2023-05-07T07:49:39;17.50;99.90
8340;DHT22;4207;49.314;7.162;2023-05-07T07:52:08;17.60;99.90
8340;DHT22;4207;49.314;7.162;2023-05-07T07:54:38;17.60;99.90
8340;DHT22;4207;49.314;7.162;2023-05-07T07:57:06;17.70;99.90
8340;DHT22;4207;49.314;7.162;2023-05-07T07:59:38;17.70;99.90
8340;DHT22;4207;49.314;7.162;2023-05-07T08:02:12;17.80;99.90
8340;DHT22;4207;49.314;7.162;2023-05-07T08:04:40;17.90;99.90
8340;DHT22;4207;49.314;7.162;2023-05-07T08:07:10;17.80;99.90
8340;DHT22;4207;49.314;7.162;2023-05-07T08:09:42;18.00;99.90
8340;DHT22;4207;49.314;7.162;2023-05-07T08:12:11;18.10;99.90
8340;DHT22;4207;49.314;7.162;2023-05-07T08:14:40;18.10;99.90
8340;DHT22;4207;49.314;7.162;2023-05-07T08:17:08;18.30;99.90
8340;DHT22;4207;49.314;7.162;2023-05-07T08:19:39;18.40;99.90
8340;DHT22;4207;49.314;7.162;2023-05-07T08:22:11;18.60;99.90
8340;DHT22;4207;49.314;7.162;2023-05-07T08:24:43;18.70;99.90
8340;DHT22;4207;49.314;7.162;2023-05-07T08:27:12;18.80;99.90
8340;DHT22;4207;49.314;7.162;2023-05-07T08:29:41;18.90;99.90
8340;DHT22;4207;49.314;7.162;2023-05-07T08:32:14;19.00;99.90
8340;DHT22;4207;49.314;7.162;2023-05-07T08:34:46;19.10;99.90
8340;DHT22;4207;49.314;7.162;2023-05-07T08:37:17;19.20;99.90
8340;DHT22;4207;49.314;7.162;2023-05-07T08:39:45;19.30;99.90
8340;DHT22;4207;49.314;7.162;2023-05-07T08:42:21;19.30;99.90
8340;DHT22;4207;49.314;7.162;2023-05-07T08:44:51;19.40;99.90
8340;DHT22;4207;49.314;7.162;2023-05-07T08:47:30;19.40;99.90
8340;DHT22;4207;49.314;7.162;2023-05-07T08:50:05;19.40;99.90
8340;DHT22;4207;49.314;7.162;2023-05-07T08:52:35;19.40;99.90
8340;DHT22;4207;49.314;7.162;2023-05-07T08:55:04;19.30;99.90
8340;DHT22;4207;49.314;7.162;2023-05-07T08:57:32;19.40;99.90
8340;DHT22;4207;49.314;7.162;2023-05-07T09:00:00;19.50;99.90
8340;DHT22;4207;49.314;7.162;2023-05-07T09:02:30;19.70;99.90
8340;DHT22;4207;49.314;7.162;2023-05-07T09:04:59;19.90;99.90
8340;DHT22;4207;49.314;7.162;2023-05-07T09:07:31;20.20;99.90
8340;DHT22;4207;49.314;7.162;2023-05-07T09:10:02;20.40;99.90
8340;DHT22;4207;49.314;7.162;2023-05-07T09:12:32;20.60;99.90
8340;DHT22;4207;49.314;7.162;2023-05-07T09:15:04;20.70;99.90
8340;DHT22;4207;49.314;7.162;2023-05-07T09:17:34;20.80;99.90
8340;DHT22;4207;49.314;7.162;2023-05-07T09:20:02;20.90;99.90
8340;DHT22;4207;49.314;7.162;2023-05-07T09:22:36;21.00;99.90
8340;DHT22;4207;49.314;7.162;2023-05-07T09:25:09;21.30;99.90
8340;DHT22;4207;49.314;7.162;2023-05-07T09:27:38;21.50;99.90
8340;DHT22;4207;49.314;7.162;2023-05-07T09:30:08;21.60;99.90
8340;DHT22;4207;49.314;7.162;2023-05-07T09:32:37;21.70;99.90
8340;DHT22;4207;49.314;7.162;2023-05-07T09:35:14;21.70;99.90
8340;DHT22;4207;49.314;7.162;2023-05-07T09:37:49;21.90;99.90
8340;DHT22;4207;49.314;7.162;2023-05-07T09:40:23;22.00;99.90
8340;DHT22;4207;49.314;7.162;2023-05-07T09:42:53;22.20;99.90
8340;DHT22;4207;49.314;7.162;2023-05-07T09:45:25;22.30;99.90
8340;DHT22;4207;49.314;7.162;2023-05-07T09:47:55;22.30;99.90
8340;DHT22;4207;49.314;7.162;2023-05-07T09:50:27;22.30;99.90
8340;DHT22;4207;49.314;7.162;2023-05-07T09:52:57;22.50;99.90
8340;DHT22;4207;49.314;7.162;2023-05-07T09:55:26;22.60;99.90
8340;DHT22;4207;49.314;7.162;2023-05-07T09:57:55;22.70;99.90
8340;DHT22;4207;49.314;7.162;2023-05-07T10:00:27;22.80;99.90
8340;DHT22;4207;49.314;7.162;2023-05-07T10:03:05;22.90;99.90
8340;DHT22;4207;49.314;7.162;2023-05-07T10:05:45;23.10;99.90
8340;DHT22;4207;49.314;7.162;2023-05-07T10:08:16;23.30;99.90
8340;DHT22;4207;49.314;7.162;2023-05-07T10:10:46;23.40;99.90
8340;DHT22;4207;49.314;7.162;2023-05-07T10:13:19;23.30;99.90
8340;DHT22;4207;49.314;7.162;2023-05-07T10:15:51;23.20;99.90
8340;DHT22;4207;49.314;7.162;2023-05-07T10:18:20;23.30;99.90
8340;DHT22;4207;49.314;7.162;2023-05-07T10:20:52;23.40;99.90
8340;DHT22;4207;49.314;7.162;2023-05-07T10:23:24;23.40;99.90
8340;DHT22;4207;49.314;7.162;2023-05-07T10:26:00;23.40;99.90
8340;DHT22;4207;49.314;7.162;2023-05-07T10:28:34;23.20;99.90
8340;DHT22;4207;49.314;7.162;2023-05-07T10:31:15;23.10;99.90
8340;DHT22;4207;49.314;7.162;2023-05-07T10:33:47;23.00;99.90
8340;DHT22;4207;49.314;7.162;2023-05-07T10:36:19;23.10;99.90
8340;DHT22;4207;49.314;7.162;2023-05-07T10:38:52;23.10;99.90
8340;DHT22;4207;49.314;7.162;2023-05-07T10:41:21;23.20;99.90
8340;DHT22;4207;49.314;7.162;2023-05-07T10:43:50;23.50;99.80
8340;DHT22;4207;49.314;7.162;2023-05-07T10:46:24;23.60;99.20
8340;DHT22;4207;49.314;7.162;2023-05-07T10:49:23;23.70;99.00
8340;DHT22;4207;49.314;7.162;2023-05-07T10:52:15;23.80;98.20
8340;DHT22;4207;49.314;7.162;2023-05-07T10:55:22;23.90;97.50
8340;DHT22;4207;49.314;7.162;2023-05-07T10:58:23;23.80;97.50
8340;DHT22;4207;49.314;7.162;2023-05-07T11:01:49;23.70;96.40
8340;DHT22;4207;49.314;7.162;2023-05-07T11:04:24;23.60;97.90
8340;DHT22;4207;49.314;7.162;2023-05-07T11:07:25;23.60;97.60
8340;DHT22;4207;49.314;7.162;2023-05-07T11:10:08;23.60;97.80
8340;DHT22;4207;49.314;7.162;2023-05-07T11:12:55;23.50;97.30
8340;DHT22;4207;49.314;7.162;2023-05-07T11:15:41;23.60;97.40
8340;DHT22;4207;49.314;7.162;2023-05-07T11:18:47;23.60;97.00
8340;DHT22;4207;49.314;7.162;2023-05-07T11:21:41;23.70;97.40
8340;DHT22;4207;49.314;7.162;2023-05-07T11:24:23;23.70;96.80
8340;DHT22;4207;49.314;7.162;2023-05-07T11:27:02;23.90;97.30
8340;DHT22;4207;49.314;7.162;2023-05-07T11:29:32;24.10;96.60
8340;DHT22;4207;49.314;7.162;2023-05-07T11:32:15;24.20;96.40
8340;DHT22;4207;49.314;7.162;2023-05-07T11:34:51;24.40;96.00
8340;DHT22;4207;49.314;7.162;2023-05-07T11:37:22;24.50;95.70
8340;DHT22;4207;49.314;7.162;2023-05-07T11:40:03;24.70;95.00
8340;DHT22;4207;49.314;7.162;2023-05-07T11:42:33;24.70;94.40
8340;DHT22;4207;49.314;7.162;2023-05-07T11:45:04;24.70;94.20
8340;DHT22;4207;49.314;7.162;2023-05-07T11:47:35;24.60;93.90
8340;DHT22;4207;49.314;7.162;2023-05-07T11:50:05;24.50;94.70
8340;DHT22;4207;49.314;7.162;2023-05-07T11:52:34;24.50;94.40
8340;DHT22;4207;49.314;7.162;2023-05-07T11:55:04;24.50;94.30
8340;DHT22;4207;49.314;7.162;2023-05-07T11:57:36;24.50;94.30
8340;DHT22;4207;49.314;7.162;2023-05-07T12:00:07;24.50;93.60
8340;DHT22;4207;49.314;7.162;2023-05-07T12:02:40;24.50;93.80
8340;DHT22;4207;49.314;7.162;2023-05-07T12:05:11;24.40;93.70
8340;DHT22;4207;49.314;7.162;2023-05-07T12:07:39;24.30;93.60
8340;DHT22;4207;49.314;7.162;2023-05-07T12:10:08;24.10;93.40
8340;DHT22;4207;49.314;7.162;2023-05-07T12:12:39;24.00;94.00
8340;DHT22;4207;49.314;7.162;2023-05-07T12:15:10;23.80;94.20
8340;DHT22;4207;49.314;7.162;2023-05-07T12:17:40;23.70;94.50
8340;DHT22;4207;49.314;7.162;2023-05-07T12:20:10;23.50;94.00
8340;DHT22;4207;49.314;7.162;2023-05-07T12:22:38;23.40;94.40
8340;DHT22;4207;49.314;7.162;2023-05-07T12:25:07;23.20;95.10
8340;DHT22;4207;49.314;7.162;2023-05-07T12:27:37;23.10;95.50
8340;DHT22;4207;49.314;7.162;2023-05-07T12:30:06;23.10;96.20
8340;DHT22;4207;49.314;7.162;2023-05-07T12:32:36;22.90;96.30
8340;DHT22;4207;49.314;7.162;2023-05-07T12:35:06;22.90;96.70
8340;DHT22;4207;49.314;7.162;2023-05-07T12:37:35;22.90;97.00
8340;DHT22;4207;49.314;7.162;2023-05-07T12:40:04;22.80;97.00
8340;DHT22;4207;49.314;7.162;2023-05-07T12:42:36;22.70;97.30
8340;DHT22;4207;49.314;7.162;2023-05-07T12:45:08;22.60;97.20
8340;DHT22;4207;49.314;7.162;2023-05-07T12:47:39;22.40;97.40
8340;DHT22;4207;49.314;7.162;2023-05-07T12:50:07;22.30;97.70
8340;DHT22;4207;49.314;7.162;2023-05-07T12:52:36;22.30;97.80
8340;DHT22;4207;49.314;7.162;2023-05-07T12:55:05;22.10;98.00
8340;DHT22;4207;49.314;7.162;2023-05-07T12:57:39;22.10;98.70
8340;DHT22;4207;49.314;7.162;2023-05-07T13:00:08;22.10;98.60
8340;DHT22;4207;49.314;7.162;2023-05-07T13:02:41;22.20;99.10
8340;DHT22;4207;49.314;7.162;2023-05-07T13:05:11;22.30;99.00
8340;DHT22;4207;49.314;7.162;2023-05-07T13:07:40;22.30;99.20
8340;DHT22;4207;49.314;7.162;2023-05-07T13:10:09;22.40;99.10
8340;DHT22;4207;49.314;7.162;2023-05-07T13:12:37;22.50;98.70
8340;DHT22;4207;49.314;7.162;2023-05-07T13:15:07;22.80;98.60
8340;DHT22;4207;49.314;7.162;2023-05-07T13:17:35;22.90;97.10
8340;DHT22;4207;49.314;7.162;2023-05-07T13:20:06;22.90;97.00
8340;DHT22;4207;49.314;7.162;2023-05-07T13:22:35;22.90;96.90
8340;DHT22;4207;49.314;7.162;2023-05-07T13:25:03;22.80;96.50
8340;DHT22;4207;49.314;7.162;2023-05-07T13:27:32;22.60;96.90
8340;DHT22;4207;49.314;7.162;2023-05-07T13:30:04;22.60;97.20
8340;DHT22;4207;49.314;7.162;2023-05-07T13:32:33;22.40;96.90
8340;DHT22;4207;49.314;7.162;2023-05-07T13:35:02;22.50;97.20
8340;DHT22;4207;49.314;7.162;2023-05-07T13:37:31;22.40;97.50
8340;DHT22;4207;49.314;7.162;2023-05-07T13:40:00;22.40;97.20
8340;DHT22;4207;49.314;7.162;2023-05-07T13:42:30;22.30;97.50
8340;DHT22;4207;49.314;7.162;2023-05-07T13:44:58;22.30;97.50
8340;DHT22;4207;49.314;7.162;2023-05-07T13:47:27;22.20;97.80
8340;DHT22;4207;49.314;7.162;2023-05-07T13:49:55;22.10;97.60
8340;DHT22;4207;49.314;7.162;2023-05-07T13:52:23;21.90;98.00
8340;DHT22;4207;49.314;7.162;2023-05-07T13:54:53;21.90;98.20
8340;DHT22;4207;49.314;7.162;2023-05-07T13:57:23;21.90;98.20
8340;DHT22;4207;49.314;7.162;2023-05-07T13:59:51;22.00;98.40
8340;DHT22;4207;49.314;7.162;2023-05-07T14:02:19;22.20;98.50
8340;DHT22;4207;49.314;7.162;2023-05-07T14:04:48;22.20;98.50
8340;DHT22;4207;49.314;7.162;2023-05-07T14:07:16;22.20;98.60
8340;DHT22;4207;49.314;7.162;2023-05-07T14:09:44;22.20;98.50
8340;DHT22;4207;49.314;7.162;2023-05-07T14:12:14;22.20;98.60
8340;DHT22;4207;49.314;7.162;2023-05-07T14:14:42;22.20;99.00
8340;DHT22;4207;49.314;7.162;2023-05-07T14:17:12;22.10;98.70
8340;DHT22;4207;49.314;7.162;2023-05-07T14:19:40;22.10;98.70
8340;DHT22;4207;49.314;7.162;2023-05-07T14:22:09;22.00;98.80
8340;DHT22;4207;49.314;7.162;2023-05-07T14:24:38;21.90;99.10
8340;DHT22;4207;49.314;7.162;2023-05-07T14:27:06;22.00;99.10
8340;DHT22;4207;49.314;7.162;2023-05-07T14:29:36;21.90;99.20
8340;DHT22;4207;49.314;7.162;2023-05-07T14:32:04;21.90;99.40
8340;DHT22;4207;49.314;7.162;2023-05-07T14:34:33;22.00;99.70
8340;DHT22;4207;49.314;7.162;2023-05-07T14:37:01;21.90;99.30
8340;DHT22;4207;49.314;7.162;2023-05-07T14:39:29;21.80;99.80
8340;DHT22;4207;49.314;7.162;2023-05-07T14:41:58;21.70;99.90
8340;DHT22;4207;49.314;7.162;2023-05-07T14:44:26;21.70;99.90
8340;DHT22;4207;49.314;7.162;2023-05-07T14:46:55;21.70;99.90
8340;DHT22;4207;49.314;7.162;2023-05-07T14:49:28;21.60;99.90
8340;DHT22;4207;49.314;7.162;2023-05-07T14:51:57;21.50;99.90
8340;DHT22;4207;49.314;7.162;2023-05-07T14:54:26;21.40;99.90
8340;DHT22;4207;49.314;7.162;2023-05-07T14:56:55;21.30;99.90
8340;DHT22;4207;49.314;7.162;2023-05-07T14:59:23;21.10;99.90
8340;DHT22;4207;49.314;7.162;2023-05-07T15:01:51;21.00;99.90
8340;DHT22;4207;49.314;7.162;2023-05-07T15:04:21;20.70;98.80
8340;DHT22;4207;49.314;7.162;2023-05-07T15:06:49;20.70;97.90
8340;DHT22;4207;49.314;7.162;2023-05-07T15:09:20;20.60;98.00
8340;DHT22;4207;49.314;7.162;2023-05-07T15:11:48;20.60;97.60
8340;DHT22;4207;49.314;7.162;2023-05-07T15:14:16;20.50;97.40
8340;DHT22;4207;49.314;7.162;2023-05-07T15:16:45;20.40;96.50
8340;DHT22;4207;49.314;7.162;2023-05-07T15:19:13;20.40;96.60
8340;DHT22;4207;49.314;7.162;2023-05-07T15:21:44;20.20;96.00
8340;DHT22;4207;49.314;7.162;2023-05-07T15:24:12;20.20;96.30
8340;DHT22;4207;49.314;7.162;2023-05-07T15:26:41;20.10;96.40
8340;DHT22;4207;49.314;7.162;2023-05-07T15:29:09;20.10;96.40
8340;DHT22;4207;49.314;7.162;2023-05-07T15:31:37;20.10;96.70
8340;DHT22;4207;49.314;7.162;2023-05-07T15:34:06;20.20;96.80
8340;DHT22;4207;49.314;7.162;2023-05-07T15:36:34;20.30;96.80
8340;DHT22;4207;49.314;7.162;2023-05-07T15:39:04;20.40;96.90
8340;DHT22;4207;49.314;7.162;2023-05-07T15:41:32;20.40;96.70
8340;DHT22;4207;49.314;7.162;2023-05-07T15:44:00;20.30;95.40
8340;DHT22;4207;49.314;7.162;2023-05-07T15:46:29;20.10;96.60
8340;DHT22;4207;49.314;7.162;2023-05-07T15:48:57;20.00;97.00
8340;DHT22;4207;49.314;7.162;2023-05-07T15:51:29;20.00;97.00
8340;DHT22;4207;49.314;7.162;2023-05-07T15:53:57;20.10;97.20
8340;DHT22;4207;49.314;7.162;2023-05-07T15:56:27;20.10;97.00
8340;DHT22;4207;49.314;7.162;2023-05-07T15:59:00;20.20;96.70
8340;DHT22;4207;49.314;7.162;2023-05-07T16:01:32;20.20;96.90
8340;DHT22;4207;49.314;7.162;2023-05-07T16:04:00;20.30;96.80
8340;DHT22;4207;49.314;7.162;2023-05-07T16:06:29;20.30;96.00
8340;DHT22;4207;49.314;7.162;2023-05-07T16:08:58;20.20;96.40
8340;DHT22;4207;49.314;7.162;2023-05-07T16:11:30;20.20;96.70
8340;DHT22;4207;49.314;7.162;2023-05-07T16:13:59;20.20;96.30
8340;DHT22;4207;49.314;7.162;2023-05-07T16:16:28;20.10;96.40
8340;DHT22;4207;49.314;7.162;2023-05-07T16:18:59;20.20;96.70
8340;DHT22;4207;49.314;7.162;2023-05-07T16:21:28;20.30;96.80
8340;DHT22;4207;49.314;7.162;2023-05-07T16:23:58;20.20;96.70
8340;DHT22;4207;49.314;7.162;2023-05-07T16:26:26;20.20;97.00